aviador You're here:

YBHM Decoded Metar

HAMILTON ISLAND in AUSTRALIA
Report Time2017-08-22 01:00:00
UTC Time2017-08-22 01:42:28
Flight Rules mvfr MVFR
Wind140° at 08 kt
W.Decomp.*RWY 14: 7.9 kt HW 1.1 kt LCW
W.Rank140° ranks 5
Current wind is below 140° avg. (16.5)
Visibility9999 m
Phenomena:N/A
Clouds:Broken 025 Hf
Overcast 030 Hf
Expected CloudBase > 1,600 ft AGL from Temp-Dew spread
Ceiling2,500 ft
Temp23°C (ISA +8)
Dew Point19°C (78% RH)
QNH1019 hPa
Density Alt1,037 ft
Elevation16 ft
Report Wrong Elevation
Raw Report
METAR YBHM 220100Z AUTO 14008KT 9999 // BKN025 OVC030 23/19 Q1019=

Extra information for YBHM:More info

Metar Taf Metar & Taf Last 4 Metars F.Rules Stats Wind Profile Meteogram Temp Stats Airport Information Weather charts Add Link Nearby VenuesMetar ALERT Operation Metar Decoded Social comments